sensor_id;sensor_type;location;lat;lon;timestamp;pressure;altitude;pressure_sealevel;temperature;humidity
6345;BME280;3205;42.666;23.264;2023-05-23T00:02:13;94156.94;;;11.83;nan
6345;BME280;3205;42.666;23.264;2023-05-23T00:04:40;94152.06;;;11.85;nan
6345;BME280;3205;42.666;23.264;2023-05-23T00:07:07;94146.03;;;11.69;nan
6345;BME280;3205;42.666;23.264;2023-05-23T00:09:34;94143.81;;;11.71;nan
6345;BME280;3205;42.666;23.264;2023-05-23T00:12:01;94141.06;;;11.68;nan
6345;BME280;3205;42.666;23.264;2023-05-23T00:14:27;94138.00;;;11.66;nan
6345;BME280;3205;42.666;23.264;2023-05-23T00:16:58;94135.81;;;11.52;nan
6345;BME280;3205;42.666;23.264;2023-05-23T00:19:25;94144.03;;;11.51;nan
6345;BME280;3205;42.666;23.264;2023-05-23T00:21:52;94143.13;;;11.43;nan
6345;BME280;3205;42.666;23.264;2023-05-23T00:24:21;94137.22;;;11.34;nan
6345;BME280;3205;42.666;23.264;2023-05-23T00:26:47;94136.91;;;11.51;nan
6345;BME280;3205;42.666;23.264;2023-05-23T00:29:14;94137.75;;;11.55;nan
6345;BME280;3205;42.666;23.264;2023-05-23T00:31:41;94134.59;;;11.65;nan
6345;BME280;3205;42.666;23.264;2023-05-23T00:34:10;94133.97;;;11.72;nan
6345;BME280;3205;42.666;23.264;2023-05-23T00:36:36;94139.19;;;11.68;nan
6345;BME280;3205;42.666;23.264;2023-05-23T00:39:02;94135.91;;;11.56;nan
6345;BME280;3205;42.666;23.264;2023-05-23T00:41:29;94143.41;;;11.54;nan
6345;BME280;3205;42.666;23.264;2023-05-23T00:43:56;94143.13;;;11.43;nan
6345;BME280;3205;42.666;23.264;2023-05-23T00:46:24;94138.69;;;11.32;nan
6345;BME280;3205;42.666;23.264;2023-05-23T00:48:50;94139.78;;;11.31;nan
6345;BME280;3205;42.666;23.264;2023-05-23T00:51:17;94136.97;;;11.24;nan
6345;BME280;3205;42.666;23.264;2023-05-23T00:53:43;94134.31;;;11.24;nan
6345;BME280;3205;42.666;23.264;2023-05-23T00:56:09;94134.50;;;11.31;nan
6345;BME280;3205;42.666;23.264;2023-05-23T00:58:36;94140.41;;;11.40;nan
6345;BME280;3205;42.666;23.264;2023-05-23T01:01:03;94140.47;;;11.43;nan
6345;BME280;3205;42.666;23.264;2023-05-23T01:03:30;94139.38;;;11.29;nan
6345;BME280;3205;42.666;23.264;2023-05-23T01:05:57;94134.25;;;11.20;nan
6345;BME280;3205;42.666;23.264;2023-05-23T01:08:23;94143.72;;;11.21;nan
6345;BME280;3205;42.666;23.264;2023-05-23T01:10:49;94141.00;;;11.18;nan
6345;BME280;3205;42.666;23.264;2023-05-23T01:13:21;94130.41;;;11.18;nan
6345;BME280;3205;42.666;23.264;2023-05-23T01:15:59;94140.91;;;11.30;nan
6345;BME280;3205;42.666;23.264;2023-05-23T01:18:31;94146.63;;;11.32;nan
6345;BME280;3205;42.666;23.264;2023-05-23T01:21:02;94153.63;;;11.40;nan
6345;BME280;3205;42.666;23.264;2023-05-23T01:24:02;94142.13;;;11.32;nan
6345;BME280;3205;42.666;23.264;2023-05-23T01:26:34;94147.22;;;11.41;nan
6345;BME280;3205;42.666;23.264;2023-05-23T01:29:10;94145.41;;;11.45;nan
6345;BME280;3205;42.666;23.264;2023-05-23T01:31:42;94138.09;;;11.54;nan
6345;BME280;3205;42.666;23.264;2023-05-23T01:34:09;94138.09;;;11.54;nan
6345;BME280;3205;42.666;23.264;2023-05-23T01:36:39;94139.59;;;11.39;nan
6345;BME280;3205;42.666;23.264;2023-05-23T01:39:05;94150.28;;;11.43;nan
6345;BME280;3205;42.666;23.264;2023-05-23T01:41:31;94143.78;;;11.40;nan
6345;BME280;3205;42.666;23.264;2023-05-23T01:43:58;94142.25;;;11.39;nan
6345;BME280;3205;42.666;23.264;2023-05-23T01:46:26;94137.06;;;11.27;nan
6345;BME280;3205;42.666;23.264;2023-05-23T01:48:53;94141.06;;;11.21;nan
6345;BME280;3205;42.666;23.264;2023-05-23T01:51:21;94140.56;;;11.16;nan
6345;BME280;3205;42.666;23.264;2023-05-23T01:53:48;94131.59;;;11.05;nan
6345;BME280;3205;42.666;23.264;2023-05-23T01:56:15;94134.69;;;11.07;nan
6345;BME280;3205;42.666;23.264;2023-05-23T01:58:41;94132.13;;;11.10;nan
6345;BME280;3205;42.666;23.264;2023-05-23T02:01:08;94135.53;;;11.11;nan
6345;BME280;3205;42.666;23.264;2023-05-23T02:03:35;94125.38;;;11.13;nan
6345;BME280;3205;42.666;23.264;2023-05-23T02:06:01;94123.16;;;11.00;nan
6345;BME280;3205;42.666;23.264;2023-05-23T02:08:27;94128.16;;;10.89;nan
6345;BME280;3205;42.666;23.264;2023-05-23T02:10:53;94122.69;;;10.82;nan
6345;BME280;3205;42.666;23.264;2023-05-23T02:13:19;94135.00;;;10.90;nan
6345;BME280;3205;42.666;23.264;2023-05-23T02:15:45;94135.69;;;10.87;nan
6345;BME280;3205;42.666;23.264;2023-05-23T02:18:12;94135.50;;;10.80;nan
6345;BME280;3205;42.666;23.264;2023-05-23T02:20:38;94141.13;;;10.79;nan
6345;BME280;3205;42.666;23.264;2023-05-23T02:23:05;94138.53;;;10.67;nan
6345;BME280;3205;42.666;23.264;2023-05-23T02:25:31;94134.97;;;10.59;nan
6345;BME280;3205;42.666;23.264;2023-05-23T02:27:57;94133.41;;;10.58;nan
6345;BME280;3205;42.666;23.264;2023-05-23T02:30:23;94129.84;;;10.66;nan
6345;BME280;3205;42.666;23.264;2023-05-23T02:32:49;94131.41;;;10.67;nan
6345;BME280;3205;42.666;23.264;2023-05-23T02:35:16;94120.81;;;10.67;nan
6345;BME280;3205;42.666;23.264;2023-05-23T02:37:42;94120.38;;;10.65;nan
6345;BME280;3205;42.666;23.264;2023-05-23T02:40:09;94121.56;;;10.52;nan
6345;BME280;3205;42.666;23.264;2023-05-23T02:42:35;94116.75;;;10.42;nan
6345;BME280;3205;42.666;23.264;2023-05-23T02:45:01;94122.38;;;10.41;nan
6345;BME280;3205;42.666;23.264;2023-05-23T02:47:27;94121.63;;;10.40;nan
6345;BME280;3205;42.666;23.264;2023-05-23T02:49:53;94119.72;;;10.41;nan
6345;BME280;3205;42.666;23.264;2023-05-23T02:52:19;94118.53;;;10.38;nan
6345;BME280;3205;42.666;23.264;2023-05-23T02:54:46;94123.81;;;10.38;nan
6345;BME280;3205;42.666;23.264;2023-05-23T02:57:12;94125.22;;;10.48;nan
6345;BME280;3205;42.666;23.264;2023-05-23T02:59:39;94116.72;;;10.54;nan
6345;BME280;3205;42.666;23.264;2023-05-23T03:02:05;94114.22;;;10.61;nan
6345;BME280;3205;42.666;23.264;2023-05-23T03:04:31;94118.94;;;10.68;nan
6345;BME280;3205;42.666;23.264;2023-05-23T03:06:58;94130.63;;;10.67;nan
6345;BME280;3205;42.666;23.264;2023-05-23T03:09:24;94135.16;;;10.66;nan
6345;BME280;3205;42.666;23.264;2023-05-23T03:11:51;94130.34;;;10.56;nan
6345;BME280;3205;42.666;23.264;2023-05-23T03:14:17;94128.97;;;10.62;nan
6345;BME280;3205;42.666;23.264;2023-05-23T03:16:43;94119.78;;;10.72;nan
6345;BME280;3205;42.666;23.264;2023-05-23T03:19:09;94123.84;;;10.81;nan
6345;BME280;3205;42.666;23.264;2023-05-23T03:21:36;94131.25;;;10.91;nan
6345;BME280;3205;42.666;23.264;2023-05-23T03:24:02;94129.53;;;10.99;nan
6345;BME280;3205;42.666;23.264;2023-05-23T03:26:28;94130.31;;;10.99;nan
6345;BME280;3205;42.666;23.264;2023-05-23T03:28:55;94125.47;;;11.01;nan
6345;BME280;3205;42.666;23.264;2023-05-23T03:31:21;94127.94;;;11.09;nan
6345;BME280;3205;42.666;23.264;2023-05-23T03:33:47;94128.88;;;11.17;nan
6345;BME280;3205;42.666;23.264;2023-05-23T03:36:13;94143.13;;;11.28;nan
6345;BME280;3205;42.666;23.264;2023-05-23T03:38:39;94143.13;;;11.28;nan
6345;BME280;3205;42.666;23.264;2023-05-23T03:41:05;94148.66;;;11.23;nan
6345;BME280;3205;42.666;23.264;2023-05-23T03:43:31;94145.00;;;11.27;nan
6345;BME280;3205;42.666;23.264;2023-05-23T03:45:58;94158.13;;;11.39;nan
6345;BME280;3205;42.666;23.264;2023-05-23T03:48:25;94155.53;;;11.55;nan
6345;BME280;3205;42.666;23.264;2023-05-23T03:50:51;94157.72;;;11.68;nan
6345;BME280;3205;42.666;23.264;2023-05-23T03:53:17;94158.53;;;11.87;nan
6345;BME280;3205;42.666;23.264;2023-05-23T03:55:43;94162.53;;;11.97;nan
6345;BME280;3205;42.666;23.264;2023-05-23T03:58:09;94165.50;;;12.11;nan
6345;BME280;3205;42.666;23.264;2023-05-23T04:00:36;94169.56;;;12.24;nan
6345;BME280;3205;42.666;23.264;2023-05-23T04:03:03;94162.72;;;12.42;nan
6345;BME280;3205;42.666;23.264;2023-05-23T04:05:29;94160.03;;;12.57;nan
6345;BME280;3205;42.666;23.264;2023-05-23T04:07:55;94171.59;;;12.68;nan
6345;BME280;3205;42.666;23.264;2023-05-23T04:10:21;94167.53;;;12.74;nan
6345;BME280;3205;42.666;23.264;2023-05-23T04:12:47;94169.22;;;12.82;nan
6345;BME280;3205;42.666;23.264;2023-05-23T04:15:13;94167.53;;;12.93;nan
6345;BME280;3205;42.666;23.264;2023-05-23T04:17:39;94175.28;;;13.01;nan
6345;BME280;3205;42.666;23.264;2023-05-23T04:20:08;94177.41;;;13.15;nan
6345;BME280;3205;42.666;23.264;2023-05-23T04:22:34;94171.00;;;13.38;nan
6345;BME280;3205;42.666;23.264;2023-05-23T04:25:00;94157.53;;;13.50;nan
6345;BME280;3205;42.666;23.264;2023-05-23T04:27:26;94154.94;;;13.53;nan
6345;BME280;3205;42.666;23.264;2023-05-23T04:29:52;94155.53;;;13.66;nan
6345;BME280;3205;42.666;23.264;2023-05-23T04:32:18;94155.69;;;13.76;nan
6345;BME280;3205;42.666;23.264;2023-05-23T04:34:47;94161.06;;;13.80;nan
6345;BME280;3205;42.666;23.264;2023-05-23T04:37:14;94161.47;;;13.82;nan
6345;BME280;3205;42.666;23.264;2023-05-23T04:39:41;94170.34;;;13.93;nan
6345;BME280;3205;42.666;23.264;2023-05-23T04:42:08;94176.72;;;13.88;nan
6345;BME280;3205;42.666;23.264;2023-05-23T04:44:34;94178.22;;;13.86;nan
6345;BME280;3205;42.666;23.264;2023-05-23T04:47:01;94183.41;;;13.79;nan
6345;BME280;3205;42.666;23.264;2023-05-23T04:49:28;94184.31;;;13.86;nan
6345;BME280;3205;42.666;23.264;2023-05-23T04:51:54;94184.59;;;13.81;nan
6345;BME280;3205;42.666;23.264;2023-05-23T04:54:20;94195.84;;;13.71;nan
6345;BME280;3205;42.666;23.264;2023-05-23T04:56:47;94196.53;;;13.68;nan
6345;BME280;3205;42.666;23.264;2023-05-23T04:59:13;94183.19;;;13.65;nan
6345;BME280;3205;42.666;23.264;2023-05-23T05:01:39;94200.84;;;13.76;nan
6345;BME280;3205;42.666;23.264;2023-05-23T05:04:05;94197.59;;;13.86;nan
6345;BME280;3205;42.666;23.264;2023-05-23T05:06:31;94192.84;;;13.99;nan
6345;BME280;3205;42.666;23.264;2023-05-23T05:08:57;94198.19;;;14.02;nan
6345;BME280;3205;42.666;23.264;2023-05-23T05:11:24;94197.97;;;14.10;nan
6345;BME280;3205;42.666;23.264;2023-05-23T05:13:51;94199.09;;;14.09;nan
6345;BME280;3205;42.666;23.264;2023-05-23T05:16:17;94203.22;;;14.07;nan
6345;BME280;3205;42.666;23.264;2023-05-23T05:18:43;94210.59;;;14.17;nan
6345;BME280;3205;42.666;23.264;2023-05-23T05:21:09;94204.63;;;14.23;nan
6345;BME280;3205;42.666;23.264;2023-05-23T05:23:35;94208.84;;;14.28;nan
6345;BME280;3205;42.666;23.264;2023-05-23T05:26:01;94204.41;;;14.35;nan
6345;BME280;3205;42.666;23.264;2023-05-23T05:28:30;94204.84;;;14.37;nan
6345;BME280;3205;42.666;23.264;2023-05-23T05:30:57;94197.84;;;14.55;nan
6345;BME280;3205;42.666;23.264;2023-05-23T05:33:23;94208.75;;;14.76;nan
6345;BME280;3205;42.666;23.264;2023-05-23T05:35:49;94201.66;;;14.87;nan
6345;BME280;3205;42.666;23.264;2023-05-23T05:38:16;94208.47;;;14.84;nan
6345;BME280;3205;42.666;23.264;2023-05-23T05:40:42;94214.63;;;14.92;nan
6345;BME280;3205;42.666;23.264;2023-05-23T05:43:08;94210.78;;;14.89;nan
6345;BME280;3205;42.666;23.264;2023-05-23T05:45:35;94212.50;;;15.04;nan
6345;BME280;3205;42.666;23.264;2023-05-23T05:48:02;94216.81;;;15.16;nan
6345;BME280;3205;42.666;23.264;2023-05-23T05:50:28;94221.91;;;15.28;nan
6345;BME280;3205;42.666;23.264;2023-05-23T05:52:54;94227.47;;;15.52;nan
6345;BME280;3205;42.666;23.264;2023-05-23T05:55:20;94238.25;;;15.62;nan
6345;BME280;3205;42.666;23.264;2023-05-23T05:57:46;94232.53;;;15.64;nan
6345;BME280;3205;42.666;23.264;2023-05-23T06:00:13;94234.19;;;15.75;nan
6345;BME280;3205;42.666;23.264;2023-05-23T06:02:41;94233.72;;;16.10;nan
6345;BME280;3205;42.666;23.264;2023-05-23T06:05:08;94235.06;;;16.37;nan
6345;BME280;3205;42.666;23.264;2023-05-23T06:07:36;94239.09;;;16.70;nan
6345;BME280;3205;42.666;23.264;2023-05-23T06:10:03;94234.34;;;17.21;nan
6345;BME280;3205;42.666;23.264;2023-05-23T06:12:30;94256.34;;;18.34;nan
6345;BME280;3205;42.666;23.264;2023-05-23T06:14:56;94269.53;;;19.28;nan
6345;BME280;3205;42.666;23.264;2023-05-23T06:17:22;94282.91;;;19.35;nan
6345;BME280;3205;42.666;23.264;2023-05-23T06:19:49;94286.38;;;19.32;nan
6345;BME280;3205;42.666;23.264;2023-05-23T06:22:15;94295.25;;;18.91;nan
6345;BME280;3205;42.666;23.264;2023-05-23T06:24:41;94292.13;;;19.24;nan
6345;BME280;3205;42.666;23.264;2023-05-23T06:27:07;94290.22;;;20.06;nan
6345;BME280;3205;42.666;23.264;2023-05-23T06:29:33;94301.78;;;21.31;nan
6345;BME280;3205;42.666;23.264;2023-05-23T06:32:01;94319.50;;;22.21;nan
6345;BME280;3205;42.666;23.264;2023-05-23T06:34:27;94332.72;;;23.92;nan
6345;BME280;3205;42.666;23.264;2023-05-23T06:36:54;94329.81;;;25.77;nan
6345;BME280;3205;42.666;23.264;2023-05-23T06:39:21;94330.69;;;26.89;nan
6345;BME280;3205;42.666;23.264;2023-05-23T06:41:47;94335.16;;;28.49;nan
6345;BME280;3205;42.666;23.264;2023-05-23T06:44:13;94329.25;;;29.37;nan
6345;BME280;3205;42.666;23.264;2023-05-23T06:46:43;94329.69;;;29.81;nan
6345;BME280;3205;42.666;23.264;2023-05-23T06:49:10;94334.84;;;29.70;nan
6345;BME280;3205;42.666;23.264;2023-05-23T06:51:36;94324.84;;;30.12;nan
6345;BME280;3205;42.666;23.264;2023-05-23T06:54:03;94333.09;;;30.53;nan
6345;BME280;3205;42.666;23.264;2023-05-23T06:56:29;94322.41;;;31.28;nan
6345;BME280;3205;42.666;23.264;2023-05-23T06:58:55;94319.88;;;31.25;nan
6345;BME280;3205;42.666;23.264;2023-05-23T07:01:21;94326.38;;;33.04;nan
6345;BME280;3205;42.666;23.264;2023-05-23T07:03:47;94330.13;;;33.40;nan
6345;BME280;3205;42.666;23.264;2023-05-23T07:06:13;94325.25;;;32.96;nan
6345;BME280;3205;42.666;23.264;2023-05-23T07:08:40;94319.41;;;31.87;nan
6345;BME280;3205;42.666;23.264;2023-05-23T07:11:06;94315.69;;;32.28;nan
6345;BME280;3205;42.666;23.264;2023-05-23T07:13:32;94320.41;;;32.56;nan
6345;BME280;3205;42.666;23.264;2023-05-23T07:15:59;94315.88;;;32.39;nan
6345;BME280;3205;42.666;23.264;2023-05-23T07:18:25;94305.91;;;32.65;nan
6345;BME280;3205;42.666;23.264;2023-05-23T07:20:51;94313.09;;;32.97;nan
6345;BME280;3205;42.666;23.264;2023-05-23T07:23:17;94307.84;;;32.64;nan
6345;BME280;3205;42.666;23.264;2023-05-23T07:25:43;94302.09;;;33.11;nan
6345;BME280;3205;42.666;23.264;2023-05-23T07:28:12;94300.63;;;33.95;nan
6345;BME280;3205;42.666;23.264;2023-05-23T07:30:38;94300.13;;;33.12;nan
6345;BME280;3205;42.666;23.264;2023-05-23T07:33:04;94301.56;;;33.27;nan
6345;BME280;3205;42.666;23.264;2023-05-23T07:35:30;94298.13;;;33.52;nan
6345;BME280;3205;42.666;23.264;2023-05-23T07:37:56;94302.28;;;33.08;nan
6345;BME280;3205;42.666;23.264;2023-05-23T07:40:22;94301.16;;;33.14;nan
6345;BME280;3205;42.666;23.264;2023-05-23T07:42:48;94295.50;;;34.53;nan
6345;BME280;3205;42.666;23.264;2023-05-23T07:45:15;94298.41;;;33.54;nan
6345;BME280;3205;42.666;23.264;2023-05-23T07:47:41;94299.28;;;32.57;nan
6345;BME280;3205;42.666;23.264;2023-05-23T07:50:08;94301.28;;;33.25;nan
6345;BME280;3205;42.666;23.264;2023-05-23T07:52:34;94286.38;;;33.91;nan
6345;BME280;3205;42.666;23.264;2023-05-23T07:55:00;94300.66;;;33.55;nan
6345;BME280;3205;42.666;23.264;2023-05-23T07:57:26;94290.56;;;34.06;nan
6345;BME280;3205;42.666;23.264;2023-05-23T07:59:53;94294.03;;;35.30;nan
6345;BME280;3205;42.666;23.264;2023-05-23T08:02:19;94286.94;;;36.62;nan
6345;BME280;3205;42.666;23.264;2023-05-23T08:04:46;94287.66;;;36.73;nan
6345;BME280;3205;42.666;23.264;2023-05-23T08:07:13;94281.84;;;36.22;nan
6345;BME280;3205;42.666;23.264;2023-05-23T08:09:39;94287.59;;;36.02;nan
6345;BME280;3205;42.666;23.264;2023-05-23T08:12:06;94287.31;;;34.08;nan
6345;BME280;3205;42.666;23.264;2023-05-23T08:14:32;94271.63;;;33.63;nan
6345;BME280;3205;42.666;23.264;2023-05-23T08:16:58;94280.41;;;34.69;nan
6345;BME280;3205;42.666;23.264;2023-05-23T08:19:25;94285.69;;;34.78;nan
6345;BME280;3205;42.666;23.264;2023-05-23T08:21:51;94278.16;;;34.42;nan
6345;BME280;3205;42.666;23.264;2023-05-23T08:24:17;94281.16;;;34.69;nan
6345;BME280;3205;42.666;23.264;2023-05-23T08:26:43;94282.00;;;35.28;nan
6345;BME280;3205;42.666;23.264;2023-05-23T08:29:10;94280.41;;;35.05;nan
6345;BME280;3205;42.666;23.264;2023-05-23T08:31:36;94285.25;;;33.18;nan
6345;BME280;3205;42.666;23.264;2023-05-23T08:34:02;94280.47;;;33.13;nan
6345;BME280;3205;42.666;23.264;2023-05-23T08:36:29;94286.34;;;33.46;nan
6345;BME280;3205;42.666;23.264;2023-05-23T08:38:58;94284.34;;;33.26;nan
6345;BME280;3205;42.666;23.264;2023-05-23T08:41:25;94270.69;;;32.29;nan
6345;BME280;3205;42.666;23.264;2023-05-23T08:43:51;94267.06;;;32.52;nan
6345;BME280;3205;42.666;23.264;2023-05-23T08:46:18;94269.53;;;32.36;nan
6345;BME280;3205;42.666;23.264;2023-05-23T08:48:50;94267.97;;;32.29;nan
6345;BME280;3205;42.666;23.264;2023-05-23T08:51:16;94272.03;;;31.53;nan
6345;BME280;3205;42.666;23.264;2023-05-23T08:53:45;94256.31;;;31.39;nan
6345;BME280;3205;42.666;23.264;2023-05-23T08:56:12;94268.16;;;32.26;nan
6345;BME280;3205;42.666;23.264;2023-05-23T08:58:40;94264.25;;;32.32;nan
6345;BME280;3205;42.666;23.264;2023-05-23T09:01:06;94267.66;;;32.90;nan
6345;BME280;3205;42.666;23.264;2023-05-23T09:03:34;94252.06;;;32.62;nan
6345;BME280;3205;42.666;23.264;2023-05-23T09:06:02;94265.44;;;31.59;nan
6345;BME280;3205;42.666;23.264;2023-05-23T09:08:29;94261.41;;;32.55;nan
6345;BME280;3205;42.666;23.264;2023-05-23T09:10:55;94264.72;;;32.59;nan
6345;BME280;3205;42.666;23.264;2023-05-23T09:13:21;94271.78;;;32.66;nan
6345;BME280;3205;42.666;23.264;2023-05-23T09:16:01;94266.31;;;33.00;nan
6345;BME280;3205;42.666;23.264;2023-05-23T09:18:32;94251.38;;;31.28;nan
6345;BME280;3205;42.666;23.264;2023-05-23T09:20:59;94258.81;;;32.18;nan
6345;BME280;3205;42.666;23.264;2023-05-23T09:23:28;94264.25;;;32.03;nan
6345;BME280;3205;42.666;23.264;2023-05-23T09:25:55;94247.13;;;32.17;nan
6345;BME280;3205;42.666;23.264;2023-05-23T09:28:21;94258.59;;;31.17;nan
6345;BME280;3205;42.666;23.264;2023-05-23T09:30:56;94255.34;;;29.18;nan
6345;BME280;3205;42.666;23.264;2023-05-23T09:33:28;94252.44;;;31.07;nan
6345;BME280;3205;42.666;23.264;2023-05-23T09:35:54;94238.69;;;30.37;nan
6345;BME280;3205;42.666;23.264;2023-05-23T09:38:20;94244.44;;;31.04;nan
6345;BME280;3205;42.666;23.264;2023-05-23T09:40:46;94246.41;;;29.98;nan
6345;BME280;3205;42.666;23.264;2023-05-23T09:43:16;94243.84;;;28.87;nan
6345;BME280;3205;42.666;23.264;2023-05-23T09:45:42;94245.50;;;28.84;nan
6345;BME280;3205;42.666;23.264;2023-05-23T09:48:11;94234.75;;;28.33;nan
6345;BME280;3205;42.666;23.264;2023-05-23T09:50:38;94241.44;;;28.41;nan
6345;BME280;3205;42.666;23.264;2023-05-23T09:53:04;94240.72;;;27.88;nan
6345;BME280;3205;42.666;23.264;2023-05-23T09:55:30;94232.00;;;27.08;nan
6345;BME280;3205;42.666;23.264;2023-05-23T09:57:58;94234.81;;;27.81;nan
6345;BME280;3205;42.666;23.264;2023-05-23T10:00:26;94224.97;;;29.28;nan
6345;BME280;3205;42.666;23.264;2023-05-23T10:03:09;94225.78;;;30.47;nan
6345;BME280;3205;42.666;23.264;2023-05-23T10:05:37;94227.25;;;29.47;nan
6345;BME280;3205;42.666;23.264;2023-05-23T10:08:07;94239.59;;;27.56;nan
6345;BME280;3205;42.666;23.264;2023-05-23T10:11:12;94232.13;;;26.21;nan
6345;BME280;3205;42.666;23.264;2023-05-23T10:13:48;94237.44;;;23.75;nan
6345;BME280;3205;42.666;23.264;2023-05-23T10:16:18;94230.03;;;23.40;nan
6345;BME280;3205;42.666;23.264;2023-05-23T10:18:48;94235.72;;;23.26;nan
6345;BME280;3205;42.666;23.264;2023-05-23T10:21:19;94225.63;;;23.11;nan
6345;BME280;3205;42.666;23.264;2023-05-23T10:23:49;94213.88;;;23.21;nan
6345;BME280;3205;42.666;23.264;2023-05-23T10:26:16;94214.94;;;23.82;nan
6345;BME280;3205;42.666;23.264;2023-05-23T10:28:43;94220.53;;;23.71;nan
6345;BME280;3205;42.666;23.264;2023-05-23T10:31:11;94230.38;;;23.42;nan
6345;BME280;3205;42.666;23.264;2023-05-23T10:33:40;94218.56;;;22.98;nan
6345;BME280;3205;42.666;23.264;2023-05-23T10:36:12;94208.94;;;23.16;nan
6345;BME280;3205;42.666;23.264;2023-05-23T10:41:26;94206.56;;;22.79;nan
6345;BME280;3205;42.666;23.264;2023-05-23T10:44:00;94212.19;;;22.88;nan
6345;BME280;3205;42.666;23.264;2023-05-23T10:46:51;94215.06;;;22.97;nan
6345;BME280;3205;42.666;23.264;2023-05-23T10:49:19;94211.03;;;22.66;nan
6345;BME280;3205;42.666;23.264;2023-05-23T10:51:48;94194.38;;;22.71;nan
6345;BME280;3205;42.666;23.264;2023-05-23T10:54:17;94191.25;;;22.53;nan
6345;BME280;3205;42.666;23.264;2023-05-23T10:56:43;94196.06;;;22.85;nan
6345;BME280;3205;42.666;23.264;2023-05-23T10:59:18;94198.53;;;23.18;nan
6345;BME280;3205;42.666;23.264;2023-05-23T11:01:45;94202.63;;;22.84;nan
6345;BME280;3205;42.666;23.264;2023-05-23T11:04:11;94204.44;;;22.22;nan
6345;BME280;3205;42.666;23.264;2023-05-23T11:06:40;94192.25;;;22.40;nan
6345;BME280;3205;42.666;23.264;2023-05-23T11:09:10;94195.75;;;22.60;nan
6345;BME280;3205;42.666;23.264;2023-05-23T11:11:53;94191.81;;;23.07;nan
6345;BME280;3205;42.666;23.264;2023-05-23T11:14:30;94195.69;;;23.06;nan
6345;BME280;3205;42.666;23.264;2023-05-23T11:16:57;94178.72;;;22.86;nan
6345;BME280;3205;42.666;23.264;2023-05-23T11:19:25;94180.09;;;22.94;nan
6345;BME280;3205;42.666;23.264;2023-05-23T11:21:54;94196.81;;;23.08;nan
6345;BME280;3205;42.666;23.264;2023-05-23T11:24:21;94179.66;;;22.56;nan
6345;BME280;3205;42.666;23.264;2023-05-23T11:26:51;94182.13;;;22.47;nan
6345;BME280;3205;42.666;23.264;2023-05-23T11:29:19;94183.75;;;22.42;nan
6345;BME280;3205;42.666;23.264;2023-05-23T11:31:45;94179.63;;;22.37;nan
6345;BME280;3205;42.666;23.264;2023-05-23T11:34:11;94182.53;;;22.46;nan
6345;BME280;3205;42.666;23.264;2023-05-23T11:36:38;94172.84;;;22.48;nan
6345;BME280;3205;42.666;23.264;2023-05-23T11:39:05;94162.47;;;22.70;nan
6345;BME280;3205;42.666;23.264;2023-05-23T11:41:33;94164.94;;;22.61;nan
6345;BME280;3205;42.666;23.264;2023-05-23T11:44:00;94164.97;;;22.80;nan
6345;BME280;3205;42.666;23.264;2023-05-23T11:46:26;94167.03;;;22.92;nan
6345;BME280;3205;42.666;23.264;2023-05-23T11:48:52;94162.00;;;22.94;nan
6345;BME280;3205;42.666;23.264;2023-05-23T11:51:18;94162.47;;;22.89;nan
6345;BME280;3205;42.666;23.264;2023-05-23T11:53:46;94156.69;;;23.10;nan
6345;BME280;3205;42.666;23.264;2023-05-23T11:56:14;94164.63;;;23.17;nan
6345;BME280;3205;42.666;23.264;2023-05-23T11:58:40;94161.81;;;23.05;nan
6345;BME280;3205;42.666;23.264;2023-05-23T12:01:08;94153.22;;;23.29;nan
6345;BME280;3205;42.666;23.264;2023-05-23T12:03:43;94163.47;;;23.18;nan
6345;BME280;3205;42.666;23.264;2023-05-23T12:06:10;94149.22;;;23.18;nan
6345;BME280;3205;42.666;23.264;2023-05-23T12:08:36;94157.81;;;22.51;nan
6345;BME280;3205;42.666;23.264;2023-05-23T12:11:02;94147.69;;;22.78;nan
6345;BME280;3205;42.666;23.264;2023-05-23T12:13:29;94147.50;;;22.88;nan
6345;BME280;3205;42.666;23.264;2023-05-23T12:15:55;94148.16;;;22.92;nan
6345;BME280;3205;42.666;23.264;2023-05-23T12:18:23;94136.81;;;22.62;nan
6345;BME280;3205;42.666;23.264;2023-05-23T12:20:50;94130.38;;;22.75;nan
6345;BME280;3205;42.666;23.264;2023-05-23T12:23:20;94138.84;;;22.58;nan
6345;BME280;3205;42.666;23.264;2023-05-23T12:25:49;94132.13;;;22.85;nan
6345;BME280;3205;42.666;23.264;2023-05-23T12:28:16;94131.09;;;22.79;nan
6345;BME280;3205;42.666;23.264;2023-05-23T12:30:43;94123.16;;;22.92;nan
6345;BME280;3205;42.666;23.264;2023-05-23T12:33:09;94124.31;;;22.91;nan
6345;BME280;3205;42.666;23.264;2023-05-23T12:35:36;94116.03;;;23.01;nan
6345;BME280;3205;42.666;23.264;2023-05-23T12:38:05;94124.81;;;23.05;nan
6345;BME280;3205;42.666;23.264;2023-05-23T12:40:31;94112.38;;;23.11;nan
6345;BME280;3205;42.666;23.264;2023-05-23T12:42:57;94115.97;;;22.85;nan
6345;BME280;3205;42.666;23.264;2023-05-23T12:45:30;94116.59;;;22.73;nan
6345;BME280;3205;42.666;23.264;2023-05-23T12:47:57;94112.44;;;22.88;nan
6345;BME280;3205;42.666;23.264;2023-05-23T12:50:23;94113.47;;;22.94;nan
6345;BME280;3205;42.666;23.264;2023-05-23T12:52:50;94098.63;;;23.06;nan
6345;BME280;3205;42.666;23.264;2023-05-23T12:55:16;94110.28;;;22.99;nan
6345;BME280;3205;42.666;23.264;2023-05-23T12:57:43;94090.03;;;22.91;nan
6345;BME280;3205;42.666;23.264;2023-05-23T13:00:10;94088.50;;;22.90;nan
6345;BME280;3205;42.666;23.264;2023-05-23T13:02:37;94089.97;;;22.56;nan
6345;BME280;3205;42.666;23.264;2023-05-23T13:05:05;94096.47;;;22.58;nan
6345;BME280;3205;42.666;23.264;2023-05-23T13:07:31;94095.66;;;22.61;nan
6345;BME280;3205;42.666;23.264;2023-05-23T13:09:57;94098.75;;;22.60;nan
6345;BME280;3205;42.666;23.264;2023-05-23T13:12:24;94094.19;;;22.76;nan
6345;BME280;3205;42.666;23.264;2023-05-23T13:14:50;94094.69;;;22.91;nan
6345;BME280;3205;42.666;23.264;2023-05-23T13:17:16;94080.16;;;22.65;nan
6345;BME280;3205;42.666;23.264;2023-05-23T13:19:42;94087.56;;;22.81;nan
6345;BME280;3205;42.666;23.264;2023-05-23T13:22:09;94094.47;;;23.01;nan
6345;BME280;3205;42.666;23.264;2023-05-23T13:24:36;94099.84;;;23.01;nan
6345;BME280;3205;42.666;23.264;2023-05-23T13:27:02;94094.19;;;22.76;nan
6345;BME280;3205;42.666;23.264;2023-05-23T13:29:28;94091.50;;;22.76;nan
6345;BME280;3205;42.666;23.264;2023-05-23T13:31:55;94100.75;;;22.75;nan
6345;BME280;3205;42.666;23.264;2023-05-23T13:34:21;94096.19;;;22.72;nan
6345;BME280;3205;42.666;23.264;2023-05-23T13:36:47;94092.13;;;22.84;nan